sensor_id;sensor_type;location;lat;lon;timestamp;temperature;humidity
3860;DHT22;1945;52.036;8.614;2023-05-02T00:00:19;12.60;99.90
3860;DHT22;1945;52.036;8.614;2023-05-02T00:02:46;12.60;99.90
3860;DHT22;1945;52.036;8.614;2023-05-02T00:05:13;12.60;99.90
3860;DHT22;1945;52.036;8.614;2023-05-02T00:07:40;12.60;99.90
3860;DHT22;1945;52.036;8.614;2023-05-02T00:10:07;12.60;99.90
3860;DHT22;1945;52.036;8.614;2023-05-02T00:12:34;12.60;99.90
3860;DHT22;1945;52.036;8.614;2023-05-02T00:15:01;12.60;99.90
3860;DHT22;1945;52.036;8.614;2023-05-02T00:17:29;12.60;99.90
3860;DHT22;1945;52.036;8.614;2023-05-02T00:19:56;12.60;99.90
3860;DHT22;1945;52.036;8.614;2023-05-02T00:22:23;12.60;99.90
3860;DHT22;1945;52.036;8.614;2023-05-02T00:24:49;12.60;99.90
3860;DHT22;1945;52.036;8.614;2023-05-02T00:27:16;12.60;99.90
3860;DHT22;1945;52.036;8.614;2023-05-02T00:29:43;12.60;99.90
3860;DHT22;1945;52.036;8.614;2023-05-02T00:32:12;12.60;99.90
3860;DHT22;1945;52.036;8.614;2023-05-02T00:34:40;12.60;99.90
3860;DHT22;1945;52.036;8.614;2023-05-02T00:37:07;12.50;99.90
3860;DHT22;1945;52.036;8.614;2023-05-02T00:39:34;12.50;99.90
3860;DHT22;1945;52.036;8.614;2023-05-02T00:42:01;12.50;99.90
3860;DHT22;1945;52.036;8.614;2023-05-02T00:44:28;12.50;99.90
3860;DHT22;1945;52.036;8.614;2023-05-02T00:46:55;12.50;99.90
3860;DHT22;1945;52.036;8.614;2023-05-02T00:49:22;12.50;99.90
3860;DHT22;1945;52.036;8.614;2023-05-02T00:51:50;12.50;99.90
3860;DHT22;1945;52.036;8.614;2023-05-02T00:54:18;12.40;99.90
3860;DHT22;1945;52.036;8.614;2023-05-02T00:56:45;12.40;99.90
3860;DHT22;1945;52.036;8.614;2023-05-02T00:59:13;12.40;99.90
3860;DHT22;1945;52.036;8.614;2023-05-02T01:01:51;12.40;99.90
3860;DHT22;1945;52.036;8.614;2023-05-02T01:04:26;12.70;99.90
3860;DHT22;1945;52.036;8.614;2023-05-02T01:07:08;12.30;99.90
3860;DHT22;1945;52.036;8.614;2023-05-02T01:09:46;12.30;99.90
3860;DHT22;1945;52.036;8.614;2023-05-02T01:12:23;12.30;99.90
3860;DHT22;1945;52.036;8.614;2023-05-02T01:14:54;12.20;99.90
3860;DHT22;1945;52.036;8.614;2023-05-02T01:17:24;12.30;99.90
3860;DHT22;1945;52.036;8.614;2023-05-02T01:19:56;12.20;99.90
3860;DHT22;1945;52.036;8.614;2023-05-02T01:22:26;12.70;99.90
3860;DHT22;1945;52.036;8.614;2023-05-02T01:24:59;12.30;99.90
3860;DHT22;1945;52.036;8.614;2023-05-02T01:27:33;12.20;99.90
3860;DHT22;1945;52.036;8.614;2023-05-02T01:30:05;12.20;99.90
3860;DHT22;1945;52.036;8.614;2023-05-02T01:32:36;12.20;99.90
3860;DHT22;1945;52.036;8.614;2023-05-02T01:35:06;12.20;99.90
3860;DHT22;1945;52.036;8.614;2023-05-02T01:37:35;12.10;99.90
3860;DHT22;1945;52.036;8.614;2023-05-02T01:40:03;12.20;99.90
3860;DHT22;1945;52.036;8.614;2023-05-02T01:42:32;12.10;99.90
3860;DHT22;1945;52.036;8.614;2023-05-02T01:45:03;12.40;99.90
3860;DHT22;1945;52.036;8.614;2023-05-02T01:47:32;12.10;99.90
3860;DHT22;1945;52.036;8.614;2023-05-02T01:50:02;12.20;99.90
3860;DHT22;1945;52.036;8.614;2023-05-02T01:52:31;12.10;99.90
3860;DHT22;1945;52.036;8.614;2023-05-02T01:54:59;12.20;99.90
3860;DHT22;1945;52.036;8.614;2023-05-02T01:57:26;12.40;99.90
3860;DHT22;1945;52.036;8.614;2023-05-02T01:59:55;12.10;99.90
3860;DHT22;1945;52.036;8.614;2023-05-02T02:02:25;12.10;99.90
3860;DHT22;1945;52.036;8.614;2023-05-02T02:04:54;12.10;99.90
3860;DHT22;1945;52.036;8.614;2023-05-02T02:07:21;12.10;99.90
3860;DHT22;1945;52.036;8.614;2023-05-02T02:09:48;12.10;99.90
3860;DHT22;1945;52.036;8.614;2023-05-02T02:12:23;12.10;99.90
3860;DHT22;1945;52.036;8.614;2023-05-02T02:14:56;12.10;99.90
3860;DHT22;1945;52.036;8.614;2023-05-02T02:17:30;12.10;99.90
3860;DHT22;1945;52.036;8.614;2023-05-02T02:20:00;12.00;99.90
3860;DHT22;1945;52.036;8.614;2023-05-02T02:22:29;11.90;99.90
3860;DHT22;1945;52.036;8.614;2023-05-02T02:24:56;12.30;99.90
3860;DHT22;1945;52.036;8.614;2023-05-02T02:27:24;11.80;99.90
3860;DHT22;1945;52.036;8.614;2023-05-02T02:29:51;11.80;99.90
3860;DHT22;1945;52.036;8.614;2023-05-02T02:32:17;11.80;99.90
3860;DHT22;1945;52.036;8.614;2023-05-02T02:34:45;11.80;99.90
3860;DHT22;1945;52.036;8.614;2023-05-02T02:37:15;11.80;99.90
3860;DHT22;1945;52.036;8.614;2023-05-02T02:39:53;11.80;99.90
3860;DHT22;1945;52.036;8.614;2023-05-02T02:42:26;11.80;99.90
3860;DHT22;1945;52.036;8.614;2023-05-02T02:45:04;11.70;99.90
3860;DHT22;1945;52.036;8.614;2023-05-02T02:47:40;11.70;99.90
3860;DHT22;1945;52.036;8.614;2023-05-02T02:50:15;12.10;99.90
3860;DHT22;1945;52.036;8.614;2023-05-02T02:52:51;11.70;99.90
3860;DHT22;1945;52.036;8.614;2023-05-02T02:55:27;11.70;99.90
3860;DHT22;1945;52.036;8.614;2023-05-02T02:57:59;11.70;99.90
3860;DHT22;1945;52.036;8.614;2023-05-02T03:00:28;11.70;99.90
3860;DHT22;1945;52.036;8.614;2023-05-02T03:02:55;11.70;99.90
3860;DHT22;1945;52.036;8.614;2023-05-02T03:05:24;11.70;99.90
3860;DHT22;1945;52.036;8.614;2023-05-02T03:07:51;12.20;99.90
3860;DHT22;1945;52.036;8.614;2023-05-02T03:10:18;11.70;99.90
3860;DHT22;1945;52.036;8.614;2023-05-02T03:12:44;11.70;99.90
3860;DHT22;1945;52.036;8.614;2023-05-02T03:15:27;11.70;99.90
3860;DHT22;1945;52.036;8.614;2023-05-02T03:17:56;11.70;99.90
3860;DHT22;1945;52.036;8.614;2023-05-02T03:20:24;11.60;99.90
3860;DHT22;1945;52.036;8.614;2023-05-02T03:22:51;11.60;99.90
3860;DHT22;1945;52.036;8.614;2023-05-02T03:25:17;12.10;99.90
3860;DHT22;1945;52.036;8.614;2023-05-02T03:27:44;11.60;99.90
3860;DHT22;1945;52.036;8.614;2023-05-02T03:30:11;11.70;99.90
3860;DHT22;1945;52.036;8.614;2023-05-02T03:32:38;11.70;99.90
3860;DHT22;1945;52.036;8.614;2023-05-02T03:35:05;11.60;99.90
3860;DHT22;1945;52.036;8.614;2023-05-02T03:37:34;11.70;99.90
3860;DHT22;1945;52.036;8.614;2023-05-02T03:40:01;11.60;99.90
3860;DHT22;1945;52.036;8.614;2023-05-02T03:42:27;11.50;99.90
3860;DHT22;1945;52.036;8.614;2023-05-02T03:44:54;11.80;99.90
3860;DHT22;1945;52.036;8.614;2023-05-02T03:47:21;11.50;99.90
3860;DHT22;1945;52.036;8.614;2023-05-02T03:49:48;11.50;99.90
3860;DHT22;1945;52.036;8.614;2023-05-02T03:52:17;11.50;99.90
3860;DHT22;1945;52.036;8.614;2023-05-02T03:54:45;11.50;99.90
3860;DHT22;1945;52.036;8.614;2023-05-02T03:57:11;11.50;99.90
3860;DHT22;1945;52.036;8.614;2023-05-02T03:59:38;11.50;99.90
3860;DHT22;1945;52.036;8.614;2023-05-02T04:02:06;11.50;99.90
3860;DHT22;1945;52.036;8.614;2023-05-02T04:04:33;11.40;99.90
3860;DHT22;1945;52.036;8.614;2023-05-02T04:07:00;11.40;99.90
3860;DHT22;1945;52.036;8.614;2023-05-02T04:09:26;11.40;99.90
3860;DHT22;1945;52.036;8.614;2023-05-02T04:11:54;11.40;99.90
3860;DHT22;1945;52.036;8.614;2023-05-02T04:14:21;11.40;99.90
3860;DHT22;1945;52.036;8.614;2023-05-02T04:16:48;11.40;1.00
3860;DHT22;1945;52.036;8.614;2023-05-02T04:19:15;11.40;99.90
3860;DHT22;1945;52.036;8.614;2023-05-02T04:21:43;11.40;99.90
3860;DHT22;1945;52.036;8.614;2023-05-02T04:24:10;11.40;99.90
3860;DHT22;1945;52.036;8.614;2023-05-02T04:26:36;11.90;99.90
3860;DHT22;1945;52.036;8.614;2023-05-02T04:29:04;11.40;99.90
3860;DHT22;1945;52.036;8.614;2023-05-02T04:31:31;11.30;1.00
3860;DHT22;1945;52.036;8.614;2023-05-02T04:33:58;11.30;1.00
3860;DHT22;1945;52.036;8.614;2023-05-02T04:36:25;11.30;1.00
3860;DHT22;1945;52.036;8.614;2023-05-02T04:38:53;11.30;1.00
3860;DHT22;1945;52.036;8.614;2023-05-02T04:41:20;11.30;1.00
3860;DHT22;1945;52.036;8.614;2023-05-02T04:43:47;11.60;1.00
3860;DHT22;1945;52.036;8.614;2023-05-02T04:46:16;11.30;1.00
3860;DHT22;1945;52.036;8.614;2023-05-02T04:48:43;11.40;1.00
3860;DHT22;1945;52.036;8.614;2023-05-02T04:51:10;11.30;1.00
3860;DHT22;1945;52.036;8.614;2023-05-02T04:53:37;11.30;1.00
3860;DHT22;1945;52.036;8.614;2023-05-02T04:56:06;11.30;1.00
3860;DHT22;1945;52.036;8.614;2023-05-02T04:58:33;11.30;1.00
3860;DHT22;1945;52.036;8.614;2023-05-02T05:01:01;11.30;1.00
3860;DHT22;1945;52.036;8.614;2023-05-02T05:03:29;11.30;1.00
3860;DHT22;1945;52.036;8.614;2023-05-02T05:05:57;11.50;1.00
3860;DHT22;1945;52.036;8.614;2023-05-02T05:08:25;11.30;1.00
3860;DHT22;1945;52.036;8.614;2023-05-02T05:10:53;11.30;1.00
3860;DHT22;1945;52.036;8.614;2023-05-02T05:13:20;11.30;1.00
3860;DHT22;1945;52.036;8.614;2023-05-02T05:15:47;11.30;1.00
3860;DHT22;1945;52.036;8.614;2023-05-02T05:18:14;11.30;1.00
3860;DHT22;1945;52.036;8.614;2023-05-02T05:20:42;11.20;1.00
3860;DHT22;1945;52.036;8.614;2023-05-02T05:23:09;11.30;1.00
3860;DHT22;1945;52.036;8.614;2023-05-02T05:25:36;11.20;1.00
3860;DHT22;1945;52.036;8.614;2023-05-02T05:28:05;11.10;1.00
3860;DHT22;1945;52.036;8.614;2023-05-02T05:30:32;11.10;1.00
3860;DHT22;1945;52.036;8.614;2023-05-02T05:32:59;11.10;1.00
3860;DHT22;1945;52.036;8.614;2023-05-02T05:35:26;11.10;1.00
3860;DHT22;1945;52.036;8.614;2023-05-02T05:37:54;11.10;1.00
3860;DHT22;1945;52.036;8.614;2023-05-02T05:40:21;11.10;1.00
3860;DHT22;1945;52.036;8.614;2023-05-02T05:42:49;11.10;99.90
3860;DHT22;1945;52.036;8.614;2023-05-02T05:45:16;11.10;99.90
3860;DHT22;1945;52.036;8.614;2023-05-02T05:47:44;10.90;99.90
3860;DHT22;1945;52.036;8.614;2023-05-02T05:50:10;11.00;99.90
3860;DHT22;1945;52.036;8.614;2023-05-02T05:52:37;11.30;99.90
3860;DHT22;1945;52.036;8.614;2023-05-02T05:55:06;10.70;99.90
3860;DHT22;1945;52.036;8.614;2023-05-02T05:57:33;10.40;99.90
3860;DHT22;1945;52.036;8.614;2023-05-02T06:00:00;10.10;99.90
3860;DHT22;1945;52.036;8.614;2023-05-02T06:02:26;10.10;99.90
3860;DHT22;1945;52.036;8.614;2023-05-02T06:04:54;9.90;99.90
3860;DHT22;1945;52.036;8.614;2023-05-02T06:07:21;9.60;1.00
3860;DHT22;1945;52.036;8.614;2023-05-02T06:09:48;9.60;1.00
3860;DHT22;1945;52.036;8.614;2023-05-02T06:12:16;9.60;1.00
3860;DHT22;1945;52.036;8.614;2023-05-02T06:14:43;9.40;99.90
3860;DHT22;1945;52.036;8.614;2023-05-02T06:17:09;9.30;99.90
3860;DHT22;1945;52.036;8.614;2023-05-02T06:19:36;9.20;99.90
3860;DHT22;1945;52.036;8.614;2023-05-02T06:22:03;9.50;99.90
3860;DHT22;1945;52.036;8.614;2023-05-02T06:24:30;9.20;99.90
3860;DHT22;1945;52.036;8.614;2023-05-02T06:26:57;9.70;99.90
3860;DHT22;1945;52.036;8.614;2023-05-02T06:29:25;9.10;99.90
3860;DHT22;1945;52.036;8.614;2023-05-02T06:31:54;9.20;99.90
3860;DHT22;1945;52.036;8.614;2023-05-02T06:34:21;9.20;99.90
3860;DHT22;1945;52.036;8.614;2023-05-02T06:36:48;9.20;99.90
3860;DHT22;1945;52.036;8.614;2023-05-02T06:39:15;9.10;99.90
3860;DHT22;1945;52.036;8.614;2023-05-02T06:41:41;9.30;99.90
3860;DHT22;1945;52.036;8.614;2023-05-02T06:44:08;9.40;99.90
3860;DHT22;1945;52.036;8.614;2023-05-02T06:46:36;9.20;99.90
3860;DHT22;1945;52.036;8.614;2023-05-02T06:49:03;9.20;99.90
3860;DHT22;1945;52.036;8.614;2023-05-02T06:51:30;9.30;99.90
3860;DHT22;1945;52.036;8.614;2023-05-02T06:54:00;9.30;99.90
3860;DHT22;1945;52.036;8.614;2023-05-02T06:56:27;9.30;99.90
3860;DHT22;1945;52.036;8.614;2023-05-02T06:58:54;9.30;99.90
3860;DHT22;1945;52.036;8.614;2023-05-02T07:01:20;9.20;99.90
3860;DHT22;1945;52.036;8.614;2023-05-02T07:03:48;9.30;99.90
3860;DHT22;1945;52.036;8.614;2023-05-02T07:06:15;9.20;99.90
3860;DHT22;1945;52.036;8.614;2023-05-02T07:08:42;9.30;99.90
3860;DHT22;1945;52.036;8.614;2023-05-02T07:11:09;9.50;99.90
3860;DHT22;1945;52.036;8.614;2023-05-02T07:13:35;9.40;99.90
3860;DHT22;1945;52.036;8.614;2023-05-02T07:16:02;9.50;37.70
3860;DHT22;1945;52.036;8.614;2023-05-02T07:18:29;9.60;5.70
3860;DHT22;1945;52.036;8.614;2023-05-02T07:20:57;9.70;1.00
3860;DHT22;1945;52.036;8.614;2023-05-02T07:23:25;9.60;1.00
3860;DHT22;1945;52.036;8.614;2023-05-02T07:25:52;9.50;1.00
3860;DHT22;1945;52.036;8.614;2023-05-02T07:28:19;9.50;1.00
3860;DHT22;1945;52.036;8.614;2023-05-02T07:30:46;9.60;1.00
3860;DHT22;1945;52.036;8.614;2023-05-02T07:33:14;9.60;1.00
3860;DHT22;1945;52.036;8.614;2023-05-02T07:35:42;9.70;1.00
3860;DHT22;1945;52.036;8.614;2023-05-02T07:38:10;9.60;1.00
3860;DHT22;1945;52.036;8.614;2023-05-02T07:40:38;9.60;1.00
3860;DHT22;1945;52.036;8.614;2023-05-02T07:43:04;9.60;1.00
3860;DHT22;1945;52.036;8.614;2023-05-02T07:45:31;9.80;1.00
3860;DHT22;1945;52.036;8.614;2023-05-02T07:47:58;9.70;1.00
3860;DHT22;1945;52.036;8.614;2023-05-02T07:50:25;9.50;1.00
3860;DHT22;1945;52.036;8.614;2023-05-02T07:55:20;9.40;1.00
3860;DHT22;1945;52.036;8.614;2023-05-02T07:57:47;9.40;1.00
3860;DHT22;1945;52.036;8.614;2023-05-02T08:00:15;9.50;1.00
3860;DHT22;1945;52.036;8.614;2023-05-02T08:02:42;9.30;1.00
3860;DHT22;1945;52.036;8.614;2023-05-02T08:05:09;9.50;1.00
3860;DHT22;1945;52.036;8.614;2023-05-02T08:07:36;9.40;1.00
3860;DHT22;1945;52.036;8.614;2023-05-02T08:10:03;9.30;1.00
3860;DHT22;1945;52.036;8.614;2023-05-02T08:12:31;9.30;1.00
3860;DHT22;1945;52.036;8.614;2023-05-02T08:14:58;9.70;1.00
3860;DHT22;1945;52.036;8.614;2023-05-02T08:17:25;9.30;1.00
3860;DHT22;1945;52.036;8.614;2023-05-02T08:19:53;9.30;1.00
3860;DHT22;1945;52.036;8.614;2023-05-02T08:22:20;9.20;1.00
3860;DHT22;1945;52.036;8.614;2023-05-02T08:24:46;9.30;1.00
3860;DHT22;1945;52.036;8.614;2023-05-02T08:27:13;9.30;1.00
3860;DHT22;1945;52.036;8.614;2023-05-02T08:29:41;9.60;1.00
3860;DHT22;1945;52.036;8.614;2023-05-02T08:32:08;9.30;1.00
3860;DHT22;1945;52.036;8.614;2023-05-02T08:34:34;9.30;1.00
3860;DHT22;1945;52.036;8.614;2023-05-02T08:37:06;9.20;1.00
3860;DHT22;1945;52.036;8.614;2023-05-02T08:39:33;9.30;1.00
3860;DHT22;1945;52.036;8.614;2023-05-02T08:41:59;9.30;1.00
3860;DHT22;1945;52.036;8.614;2023-05-02T08:44:26;9.30;1.00
3860;DHT22;1945;52.036;8.614;2023-05-02T08:46:55;9.40;1.00
3860;DHT22;1945;52.036;8.614;2023-05-02T08:49:24;9.60;99.90
3860;DHT22;1945;52.036;8.614;2023-05-02T08:51:53;9.80;99.90
3860;DHT22;1945;52.036;8.614;2023-05-02T08:54:21;9.50;1.00
3860;DHT22;1945;52.036;8.614;2023-05-02T08:56:50;9.50;99.90
3860;DHT22;1945;52.036;8.614;2023-05-02T08:59:17;9.60;99.90
3860;DHT22;1945;52.036;8.614;2023-05-02T09:01:44;9.60;1.00
3860;DHT22;1945;52.036;8.614;2023-05-02T09:04:17;9.60;99.90
3860;DHT22;1945;52.036;8.614;2023-05-02T09:06:44;9.80;99.90
3860;DHT22;1945;52.036;8.614;2023-05-02T09:09:11;9.80;99.90
3860;DHT22;1945;52.036;8.614;2023-05-02T09:11:38;10.20;85.10
3860;DHT22;1945;52.036;8.614;2023-05-02T09:14:13;9.70;99.10
3860;DHT22;1945;52.036;8.614;2023-05-02T09:16:40;9.70;60.10
3860;DHT22;1945;52.036;8.614;2023-05-02T09:19:07;9.80;99.90
3860;DHT22;1945;52.036;8.614;2023-05-02T09:21:37;10.00;99.90
3860;DHT22;1945;52.036;8.614;2023-05-02T09:24:15;10.00;96.90
3860;DHT22;1945;52.036;8.614;2023-05-02T09:26:43;10.00;99.90
3860;DHT22;1945;52.036;8.614;2023-05-02T09:29:21;10.20;99.90
3860;DHT22;1945;52.036;8.614;2023-05-02T09:31:48;10.40;99.90
3860;DHT22;1945;52.036;8.614;2023-05-02T09:34:15;10.40;81.40
3860;DHT22;1945;52.036;8.614;2023-05-02T09:36:45;10.30;1.00
3860;DHT22;1945;52.036;8.614;2023-05-02T09:39:13;10.30;1.00
3860;DHT22;1945;52.036;8.614;2023-05-02T09:41:40;10.60;1.00
3860;DHT22;1945;52.036;8.614;2023-05-02T09:44:09;10.60;1.00
3860;DHT22;1945;52.036;8.614;2023-05-02T09:46:40;10.60;1.00
3860;DHT22;1945;52.036;8.614;2023-05-02T09:49:07;10.50;1.00
3860;DHT22;1945;52.036;8.614;2023-05-02T09:51:34;10.50;1.00
3860;DHT22;1945;52.036;8.614;2023-05-02T09:54:02;10.60;1.00
3860;DHT22;1945;52.036;8.614;2023-05-02T09:56:29;10.60;1.00
3860;DHT22;1945;52.036;8.614;2023-05-02T09:59:11;10.90;55.20
3860;DHT22;1945;52.036;8.614;2023-05-02T10:01:39;10.90;1.00
3860;DHT22;1945;52.036;8.614;2023-05-02T10:04:11;10.90;1.00
3860;DHT22;1945;52.036;8.614;2023-05-02T10:06:41;10.80;1.00
3860;DHT22;1945;52.036;8.614;2023-05-02T10:09:10;10.90;1.00
3860;DHT22;1945;52.036;8.614;2023-05-02T10:11:38;10.60;1.00
3860;DHT22;1945;52.036;8.614;2023-05-02T10:14:08;10.50;1.00
3860;DHT22;1945;52.036;8.614;2023-05-02T10:16:39;10.20;1.00
3860;DHT22;1945;52.036;8.614;2023-05-02T10:19:08;10.10;1.00
3860;DHT22;1945;52.036;8.614;2023-05-02T10:21:36;10.00;1.00
3860;DHT22;1945;52.036;8.614;2023-05-02T10:24:05;10.10;1.00
3860;DHT22;1945;52.036;8.614;2023-05-02T10:26:33;10.30;1.00
3860;DHT22;1945;52.036;8.614;2023-05-02T10:29:01;10.30;1.00
3860;DHT22;1945;52.036;8.614;2023-05-02T10:31:33;10.30;1.00
3860;DHT22;1945;52.036;8.614;2023-05-02T10:34:00;10.50;1.00
3860;DHT22;1945;52.036;8.614;2023-05-02T10:36:28;10.50;1.00
3860;DHT22;1945;52.036;8.614;2023-05-02T10:38:58;10.60;1.00
3860;DHT22;1945;52.036;8.614;2023-05-02T10:41:29;10.40;1.00
3860;DHT22;1945;52.036;8.614;2023-05-02T10:43:58;10.40;1.00
3860;DHT22;1945;52.036;8.614;2023-05-02T10:46:29;10.60;1.00
3860;DHT22;1945;52.036;8.614;2023-05-02T10:49:00;10.40;1.00
3860;DHT22;1945;52.036;8.614;2023-05-02T10:51:28;10.60;1.00
3860;DHT22;1945;52.036;8.614;2023-05-02T10:54:18;10.90;1.00
3860;DHT22;1945;52.036;8.614;2023-05-02T10:57:05;11.00;1.00
3860;DHT22;1945;52.036;8.614;2023-05-02T10:59:35;11.20;1.00
3860;DHT22;1945;52.036;8.614;2023-05-02T11:02:02;11.20;1.00
3860;DHT22;1945;52.036;8.614;2023-05-02T11:04:57;11.60;1.00
3860;DHT22;1945;52.036;8.614;2023-05-02T11:07:24;11.60;1.00
3860;DHT22;1945;52.036;8.614;2023-05-02T11:09:51;11.70;1.00
3860;DHT22;1945;52.036;8.614;2023-05-02T11:12:42;11.90;1.00
3860;DHT22;1945;52.036;8.614;2023-05-02T11:15:11;11.80;99.90
3860;DHT22;1945;52.036;8.614;2023-05-02T11:17:57;11.50;1.00
3860;DHT22;1945;52.036;8.614;2023-05-02T11:20:24;11.20;1.00
3860;DHT22;1945;52.036;8.614;2023-05-02T11:22:52;11.40;1.00
3860;DHT22;1945;52.036;8.614;2023-05-02T11:25:36;11.50;99.90
3860;DHT22;1945;52.036;8.614;2023-05-02T11:28:06;11.70;1.00
3860;DHT22;1945;52.036;8.614;2023-05-02T11:30:44;11.90;99.90
3860;DHT22;1945;52.036;8.614;2023-05-02T11:33:15;11.80;1.00
3860;DHT22;1945;52.036;8.614;2023-05-02T11:35:43;11.60;99.90
3860;DHT22;1945;52.036;8.614;2023-05-02T11:38:12;11.60;99.90
3860;DHT22;1945;52.036;8.614;2023-05-02T11:40:40;11.70;99.90
3860;DHT22;1945;52.036;8.614;2023-05-02T11:43:14;12.00;99.90
3860;DHT22;1945;52.036;8.614;2023-05-02T11:45:41;12.10;99.90
3860;DHT22;1945;52.036;8.614;2023-05-02T11:48:11;12.20;99.90
3860;DHT22;1945;52.036;8.614;2023-05-02T11:50:41;11.70;99.90
3860;DHT22;1945;52.036;8.614;2023-05-02T11:53:13;11.30;99.90
3860;DHT22;1945;52.036;8.614;2023-05-02T11:55:47;11.80;99.90
3860;DHT22;1945;52.036;8.614;2023-05-02T11:58:15;11.90;99.90
3860;DHT22;1945;52.036;8.614;2023-05-02T12:00:44;11.90;99.90
3860;DHT22;1945;52.036;8.614;2023-05-02T12:03:23;12.20;99.90
3860;DHT22;1945;52.036;8.614;2023-05-02T12:05:50;12.00;99.90
3860;DHT22;1945;52.036;8.614;2023-05-02T12:08:23;11.80;99.90
3860;DHT22;1945;52.036;8.614;2023-05-02T12:10:51;11.70;73.50
3860;DHT22;1945;52.036;8.614;2023-05-02T12:13:20;12.00;99.90
3860;DHT22;1945;52.036;8.614;2023-05-02T12:15:48;12.00;49.40
3860;DHT22;1945;52.036;8.614;2023-05-02T12:18:16;12.00;1.00
3860;DHT22;1945;52.036;8.614;2023-05-02T12:20:45;12.20;75.10
3860;DHT22;1945;52.036;8.614;2023-05-02T12:23:12;12.00;1.00
3860;DHT22;1945;52.036;8.614;2023-05-02T12:25:39;12.00;1.00
3860;DHT22;1945;52.036;8.614;2023-05-02T12:28:06;12.20;1.00
3860;DHT22;1945;52.036;8.614;2023-05-02T12:30:34;12.20;1.00
3860;DHT22;1945;52.036;8.614;2023-05-02T12:33:03;12.00;1.00
3860;DHT22;1945;52.036;8.614;2023-05-02T12:35:31;12.10;1.00
3860;DHT22;1945;52.036;8.614;2023-05-02T12:38:13;12.30;1.00
3860;DHT22;1945;52.036;8.614;2023-05-02T12:40:51;12.40;1.00
3860;DHT22;1945;52.036;8.614;2023-05-02T12:43:18;12.70;1.00
3860;DHT22;1945;52.036;8.614;2023-05-02T12:45:46;12.60;1.00
3860;DHT22;1945;52.036;8.614;2023-05-02T12:48:18;12.70;1.00
3860;DHT22;1945;52.036;8.614;2023-05-02T12:50:45;13.10;1.00
3860;DHT22;1945;52.036;8.614;2023-05-02T12:53:13;12.80;1.00
3860;DHT22;1945;52.036;8.614;2023-05-02T12:55:40;12.80;1.00
3860;DHT22;1945;52.036;8.614;2023-05-02T12:58:08;12.80;1.00
3860;DHT22;1945;52.036;8.614;2023-05-02T13:00:37;12.80;1.00
3860;DHT22;1945;52.036;8.614;2023-05-02T13:03:04;12.60;1.00
3860;DHT22;1945;52.036;8.614;2023-05-02T13:05:31;12.50;1.00
3860;DHT22;1945;52.036;8.614;2023-05-02T13:07:58;12.60;1.00
3860;DHT22;1945;52.036;8.614;2023-05-02T13:10:26;12.80;1.00
3860;DHT22;1945;52.036;8.614;2023-05-02T13:12:53;12.90;1.00
3860;DHT22;1945;52.036;8.614;2023-05-02T13:15:21;13.40;1.00
3860;DHT22;1945;52.036;8.614;2023-05-02T13:17:49;13.40;1.00
3860;DHT22;1945;52.036;8.614;2023-05-02T13:20:16;13.20;1.00
3860;DHT22;1945;52.036;8.614;2023-05-02T13:22:43;13.30;1.00
3860;DHT22;1945;52.036;8.614;2023-05-02T13:25:10;13.50;1.00
3860;DHT22;1945;52.036;8.614;2023-05-02T13:27:38;13.10;1.00
3860;DHT22;1945;52.036;8.614;2023-05-02T13:30:06;13.50;1.00
3860;DHT22;1945;52.036;8.614;2023-05-02T13:32:33;13.20;1.00
3860;DHT22;1945;52.036;8.614;2023-05-02T13:35:00;13.50;49.30
3860;DHT22;1945;52.036;8.614;2023-05-02T13:37:28;13.40;79.50
3860;DHT22;1945;52.036;8.614;2023-05-02T13:39:55;13.40;99.90
3860;DHT22;1945;52.036;8.614;2023-05-02T13:42:21;13.30;64.40
3860;DHT22;1945;52.036;8.614;2023-05-02T13:44:49;13.20;99.90
3860;DHT22;1945;52.036;8.614;2023-05-02T13:47:16;13.10;74.60
3860;DHT22;1945;52.036;8.614;2023-05-02T13:49:43;12.80;99.90
3860;DHT22;1945;52.036;8.614;2023-05-02T13:52:10;13.00;92.50
3860;DHT22;1945;52.036;8.614;2023-05-02T13:54:37;13.20;99.90
3860;DHT22;1945;52.036;8.614;2023-05-02T13:57:03;13.00;99.90
3860;DHT22;1945;52.036;8.614;2023-05-02T13:59:30;12.90;99.90
3860;DHT22;1945;52.036;8.614;2023-05-02T14:01:58;13.20;99.90
3860;DHT22;1945;52.036;8.614;2023-05-02T14:04:25;13.50;99.90
3860;DHT22;1945;52.036;8.614;2023-05-02T14:06:52;13.40;99.90
3860;DHT22;1945;52.036;8.614;2023-05-02T14:09:18;13.20;99.90
3860;DHT22;1945;52.036;8.614;2023-05-02T14:11:45;12.80;99.90
3860;DHT22;1945;52.036;8.614;2023-05-02T14:14:13;13.10;99.90
3860;DHT22;1945;52.036;8.614;2023-05-02T14:16:40;13.10;99.90
3860;DHT22;1945;52.036;8.614;2023-05-02T14:19:08;12.90;99.90
3860;DHT22;1945;52.036;8.614;2023-05-02T14:21:35;12.50;56.40
3860;DHT22;1945;52.036;8.614;2023-05-02T14:24:03;12.90;14.20
3860;DHT22;1945;52.036;8.614;2023-05-02T14:26:30;12.60;1.00
3860;DHT22;1945;52.036;8.614;2023-05-02T14:28:57;12.70;1.00
3860;DHT22;1945;52.036;8.614;2023-05-02T14:31:25;12.80;50.80
3860;DHT22;1945;52.036;8.614;2023-05-02T14:33:52;12.90;47.50
3860;DHT22;1945;52.036;8.614;2023-05-02T14:36:20;12.90;66.30
3860;DHT22;1945;52.036;8.614;2023-05-02T14:38:46;13.10;99.90
3860;DHT22;1945;52.036;8.614;2023-05-02T14:41:13;13.20;99.90
3860;DHT22;1945;52.036;8.614;2023-05-02T14:43:40;13.50;99.90
3860;DHT22;1945;52.036;8.614;2023-05-02T14:46:07;13.20;99.90
3860;DHT22;1945;52.036;8.614;2023-05-02T14:48:33;13.00;99.90
3860;DHT22;1945;52.036;8.614;2023-05-02T14:51:02;12.90;99.90
3860;DHT22;1945;52.036;8.614;2023-05-02T14:53:30;13.00;99.90
3860;DHT22;1945;52.036;8.614;2023-05-02T14:55:57;13.00;99.90
3860;DHT22;1945;52.036;8.614;2023-05-02T14:58:23;13.00;99.90
3860;DHT22;1945;52.036;8.614;2023-05-02T15:00:50;12.50;99.90
3860;DHT22;1945;52.036;8.614;2023-05-02T15:03:17;12.80;99.90
3860;DHT22;1945;52.036;8.614;2023-05-02T15:05:43;12.80;99.90
3860;DHT22;1945;52.036;8.614;2023-05-02T15:08:10;12.70;99.90
3860;DHT22;1945;52.036;8.614;2023-05-02T15:10:39;12.40;99.90
3860;DHT22;1945;52.036;8.614;2023-05-02T15:13:05;12.50;99.90
3860;DHT22;1945;52.036;8.614;2023-05-02T15:15:33;12.40;20.50
3860;DHT22;1945;52.036;8.614;2023-05-02T15:18:00;12.50;1.00
3860;DHT22;1945;52.036;8.614;2023-05-02T15:20:27;12.30;32.90
3860;DHT22;1945;52.036;8.614;2023-05-02T15:22:54;12.50;75.50
3860;DHT22;1945;52.036;8.614;2023-05-02T15:25:20;12.50;57.80
3860;DHT22;1945;52.036;8.614;2023-05-02T15:27:49;12.50;43.60
3860;DHT22;1945;52.036;8.614;2023-05-02T15:30:16;12.60;73.90
3860;DHT22;1945;52.036;8.614;2023-05-02T15:32:43;12.60;99.90
3860;DHT22;1945;52.036;8.614;2023-05-02T15:35:10;12.60;99.90
3860;DHT22;1945;52.036;8.614;2023-05-02T15:37:37;12.60;99.90
3860;DHT22;1945;52.036;8.614;2023-05-02T15:40:05;12.70;99.90
3860;DHT22;1945;52.036;8.614;2023-05-02T15:42:37;12.60;99.90
3860;DHT22;1945;52.036;8.614;2023-05-02T15:45:07;12.70;99.90
3860;DHT22;1945;52.036;8.614;2023-05-02T15:47:34;12.60;99.90
3860;DHT22;1945;52.036;8.614;2023-05-02T15:50:01;12.70;99.90
3860;DHT22;1945;52.036;8.614;2023-05-02T15:52:28;12.80;99.90
3860;DHT22;1945;52.036;8.614;2023-05-02T15:54:55;12.50;99.90
3860;DHT22;1945;52.036;8.614;2023-05-02T15:57:21;12.50;99.90
3860;DHT22;1945;52.036;8.614;2023-05-02T15:59:48;12.60;99.90
3860;DHT22;1945;52.036;8.614;2023-05-02T16:02:17;12.50;99.90
3860;DHT22;1945;52.036;8.614;2023-05-02T16:04:43;12.50;99.90
3860;DHT22;1945;52.036;8.614;2023-05-02T16:07:10;12.50;99.90
3860;DHT22;1945;52.036;8.614;2023-05-02T16:09:37;12.20;99.90
3860;DHT22;1945;52.036;8.614;2023-05-02T16:12:06;12.50;93.90
3860;DHT22;1945;52.036;8.614;2023-05-02T16:14:33;12.40;99.90
3860;DHT22;1945;52.036;8.614;2023-05-02T16:16:59;12.30;99.90
3860;DHT22;1945;52.036;8.614;2023-05-02T16:19:28;12.50;90.70